TRA43N LCLK-EHAM
Flight info
| Callsign | TRA43N |
|---|---|
| Flight time | 4h 12m |
| Altitude | 32000 |
| Route | PHA DCT GENOS DCT PEDER DCT EVENO UM601 EXELA UN127 RIKSO DCT EVIVI L863 OKANA DCT TONDO DCT TEKNO DCT BEGLA DCT FMD DCT DITIS DCT LOMKI DCT VARIK DCT KATCE DCT APEBE DCT NORKU |
| Aircraft | B738/M-SDE2E3FGHIRWXY/LB1 |
Departure
| Time | 2026-05-04 10:40 |
|---|---|
| Airport | Larnaca International Airport (LCLK) |
Arrival
| Time | 2026-05-04 14:52 |
|---|---|
| Airport | Amsterdam Airport Schiphol (EHAM) |
| Time | Latitude | Longitude | Altitude | Speed | Heading |
|---|---|---|---|---|---|
| 2026-05-04 10:10 | 34.86906 | 33.60894 | 19 ft | 0 kts | 46° |
| 2026-05-04 10:29 | 34.86892 | 33.60876 | 19 ft | 4 kts | 53° |
| 2026-05-04 10:29 | 34.86878 | 33.60848 | 21 ft | 4 kts | 67° |
| 2026-05-04 10:29 | 34.86871 | 33.60817 | 21 ft | 4 kts | 91° |
| 2026-05-04 10:30 | 34.86878 | 33.60789 | 23 ft | 3 kts | 134° |
| 2026-05-04 10:30 | 34.86880 | 33.60787 | 21 ft | 0 kts | 136° |
| 2026-05-04 10:33 | 34.86839 | 33.60835 | 19 ft | 12 kts | 136° |
| 2026-05-04 10:34 | 34.86775 | 33.60909 | 19 ft | 12 kts | 136° |
| 2026-05-04 10:34 | 34.86735 | 33.60958 | 19 ft | 13 kts | 134° |
| 2026-05-04 10:34 | 34.86668 | 33.61045 | 20 ft | 16 kts | 132° |
| 2026-05-04 10:34 | 34.86675 | 33.61172 | 20 ft | 16 kts | 54° |
| 2026-05-04 10:35 | 34.86754 | 33.61269 | 19 ft | 16 kts | 44° |
| 2026-05-04 10:35 | 34.86833 | 33.61363 | 19 ft | 17 kts | 44° |
| 2026-05-04 10:35 | 34.86936 | 33.61490 | 21 ft | 24 kts | 45° |
| 2026-05-04 10:35 | 34.87048 | 33.61629 | 20 ft | 23 kts | 46° |
| 2026-05-04 10:36 | 34.87156 | 33.61765 | 20 ft | 22 kts | 46° |
| 2026-05-04 10:36 | 34.87268 | 33.61904 | 20 ft | 27 kts | 45° |
| 2026-05-04 10:36 | 34.87407 | 33.62076 | 19 ft | 28 kts | 45° |
| 2026-05-04 10:36 | 34.87539 | 33.62240 | 19 ft | 26 kts | 45° |
| 2026-05-04 10:37 | 34.87665 | 33.62394 | 19 ft | 25 kts | 45° |
| 2026-05-04 10:37 | 34.87785 | 33.62535 | 21 ft | 23 kts | 44° |
| 2026-05-04 10:37 | 34.87897 | 33.62670 | 19 ft | 22 kts | 44° |
| 2026-05-04 10:37 | 34.88006 | 33.62802 | 19 ft | 22 kts | 45° |
| 2026-05-04 10:39 | 34.88319 | 33.63519 | 19 ft | 18 kts | 182° |
| 2026-05-04 10:39 | 34.88181 | 33.63384 | 19 ft | 49 kts | 221° |
| 2026-05-04 10:39 | 34.87806 | 33.62922 | 21 ft | 103 kts | 225° |
| 2026-05-04 10:40 | 34.87188 | 33.62170 | 21 ft | 146 kts | 224° |
| 2026-05-04 10:40 | 34.86411 | 33.61202 | 231 ft | 160 kts | 228° |
| 2026-05-04 10:40 | 34.85646 | 33.60262 | 875 ft | 155 kts | 228° |
| 2026-05-04 10:40 | 34.84855 | 33.59367 | 1449 ft | 157 kts | 228° |
| 2026-05-04 10:41 | 34.84046 | 33.58423 | 1870 ft | 165 kts | 229° |
| 2026-05-04 10:41 | 34.83205 | 33.57341 | 2093 ft | 185 kts | 231° |
| 2026-05-04 10:41 | 34.82319 | 33.56138 | 2264 ft | 201 kts | 231° |
| 2026-05-04 10:41 | 34.81342 | 33.54824 | 2464 ft | 215 kts | 232° |
| 2026-05-04 10:42 | 34.80303 | 33.53444 | 2659 ft | 231 kts | 231° |
| 2026-05-04 10:42 | 34.79535 | 33.51716 | 2941 ft | 237 kts | 263° |
| 2026-05-04 10:42 | 34.79653 | 33.49731 | 3701 ft | 237 kts | 281° |
| 2026-05-04 10:42 | 34.80162 | 33.47799 | 4286 ft | 242 kts | 287° |
| 2026-05-04 10:43 | 34.80772 | 33.45875 | 4886 ft | 245 kts | 287° |
| 2026-05-04 10:44 | 34.85271 | 33.31867 | 9166 ft | 265 kts | 285° |
| 2026-05-04 10:45 | 34.85935 | 33.29754 | 9835 ft | 268 kts | 285° |
| 2026-05-04 10:45 | 34.86607 | 33.27616 | 10366 ft | 276 kts | 285° |
| 2026-05-04 10:45 | 34.87314 | 33.25339 | 10517 ft | 298 kts | 285° |
| 2026-05-04 10:45 | 34.88073 | 33.22890 | 10673 ft | 318 kts | 285° |
| 2026-05-04 10:46 | 34.88876 | 33.20307 | 10957 ft | 331 kts | 285° |
| 2026-05-04 10:46 | 34.89700 | 33.17665 | 11629 ft | 336 kts | 285° |
| 2026-05-04 10:46 | 34.90539 | 33.14982 | 12247 ft | 340 kts | 285° |
| 2026-05-04 10:46 | 34.91375 | 33.12306 | 12864 ft | 344 kts | 285° |
| 2026-05-04 10:47 | 34.92231 | 33.09557 | 13477 ft | 349 kts | 285° |
| 2026-05-04 10:47 | 34.93096 | 33.06776 | 14055 ft | 352 kts | 285° |
| 2026-05-04 10:47 | 34.93964 | 33.03980 | 14712 ft | 353 kts | 285° |
| 2026-05-04 10:47 | 34.94838 | 33.01162 | 15287 ft | 357 kts | 285° |
| 2026-05-04 10:49 | 35.01203 | 32.80520 | 19042 ft | 385 kts | 284° |
| 2026-05-04 10:49 | 35.02147 | 32.77450 | 19538 ft | 386 kts | 284° |
| 2026-05-04 10:50 | 35.03092 | 32.74362 | 19970 ft | 390 kts | 284° |
| 2026-05-04 10:51 | 35.09864 | 32.52204 | 23235 ft | 407 kts | 284° |
| 2026-05-04 10:52 | 35.10851 | 32.48953 | 23674 ft | 409 kts | 284° |
| 2026-05-04 10:52 | 35.11833 | 32.45724 | 24064 ft | 411 kts | 284° |
| 2026-05-04 10:52 | 35.12833 | 32.42431 | 24436 ft | 413 kts | 284° |
| 2026-05-04 10:54 | 35.19885 | 32.19086 | 26963 ft | 424 kts | 284° |
| 2026-05-04 10:54 | 35.20905 | 32.15691 | 27266 ft | 427 kts | 284° |
| 2026-05-04 10:56 | 35.28142 | 31.91505 | 29378 ft | 438 kts | 284° |
| 2026-05-04 10:56 | 35.29191 | 31.87982 | 29744 ft | 438 kts | 284° |
| 2026-05-04 10:56 | 35.30221 | 31.84524 | 30139 ft | 436 kts | 283° |
| 2026-05-04 10:57 | 35.31258 | 31.81040 | 30464 ft | 435 kts | 283° |
| 2026-05-04 10:57 | 35.32294 | 31.77550 | 30727 ft | 435 kts | 283° |
| 2026-05-04 10:57 | 35.33332 | 31.74045 | 30971 ft | 436 kts | 283° |
| 2026-05-04 10:57 | 35.34355 | 31.70586 | 31248 ft | 436 kts | 283° |
| 2026-05-04 10:58 | 35.35387 | 31.67094 | 31558 ft | 435 kts | 283° |
| 2026-05-04 10:58 | 35.36416 | 31.63611 | 31839 ft | 435 kts | 283° |
| 2026-05-04 10:58 | 35.37445 | 31.60120 | 32074 ft | 435 kts | 283° |
| 2026-05-04 10:58 | 35.38475 | 31.56621 | 32330 ft | 435 kts | 283° |
| 2026-05-04 10:59 | 35.39501 | 31.53132 | 32612 ft | 435 kts | 283° |
| 2026-05-04 10:59 | 35.40527 | 31.49642 | 32879 ft | 434 kts | 283° |
| 2026-05-04 10:59 | 35.41537 | 31.46199 | 33101 ft | 435 kts | 283° |
| 2026-05-04 10:59 | 35.42560 | 31.42707 | 33337 ft | 435 kts | 283° |
| 2026-05-04 11:00 | 35.43523 | 31.39417 | 33589 ft | 434 kts | 282° |
| 2026-05-04 11:01 | 35.50481 | 31.15531 | 35034 ft | 431 kts | 282° |
| 2026-05-04 11:02 | 35.51487 | 31.12061 | 35222 ft | 431 kts | 282° |
| 2026-05-04 11:02 | 35.52481 | 31.08625 | 35393 ft | 431 kts | 284° |
| 2026-05-04 11:05 | 35.66380 | 30.60168 | 35906 ft | 429 kts | 283° |
| 2026-05-04 11:06 | 35.68349 | 30.53231 | 35892 ft | 429 kts | 283° |
| 2026-05-04 11:06 | 35.70309 | 30.46312 | 35902 ft | 430 kts | 283° |
| 2026-05-04 11:10 | 35.84083 | 29.97171 | 35890 ft | 436 kts | 284° |
| 2026-05-04 11:12 | 35.91800 | 29.68848 | 35895 ft | 435 kts | 284° |
| 2026-05-04 11:12 | 35.93723 | 29.61753 | 35899 ft | 435 kts | 284° |
| 2026-05-04 11:13 | 35.96378 | 29.55061 | 35908 ft | 442 kts | 301° |
| 2026-05-04 11:13 | 36.00627 | 29.49479 | 35918 ft | 451 kts | 316° |
| 2026-05-04 11:14 | 36.05539 | 29.44607 | 35908 ft | 452 kts | 317° |
| 2026-05-04 11:16 | 36.24882 | 29.24850 | 35905 ft | 450 kts | 316° |
| 2026-05-04 11:16 | 36.29645 | 29.19861 | 35916 ft | 450 kts | 316° |
| 2026-05-04 11:17 | 36.34437 | 29.14839 | 35910 ft | 450 kts | 316° |
| 2026-05-04 11:19 | 36.53523 | 28.94662 | 35931 ft | 451 kts | 316° |
| 2026-05-04 11:19 | 36.58299 | 28.89593 | 35938 ft | 451 kts | 316° |
| 2026-05-04 11:20 | 36.63043 | 28.84548 | 35940 ft | 451 kts | 316° |
| 2026-05-04 11:20 | 36.67815 | 28.79467 | 35942 ft | 451 kts | 316° |
| 2026-05-04 11:22 | 36.86941 | 28.59183 | 35930 ft | 450 kts | 317° |
| 2026-05-04 11:23 | 36.90912 | 28.54956 | 35944 ft | 449 kts | 317° |
| 2026-05-04 11:25 | 37.07510 | 28.37221 | 35961 ft | 448 kts | 317° |
| 2026-05-04 11:25 | 37.12217 | 28.32103 | 35967 ft | 447 kts | 317° |
| 2026-05-04 11:27 | 37.33396 | 28.09258 | 35994 ft | 446 kts | 317° |
| 2026-05-04 11:28 | 37.35746 | 28.06708 | 35843 ft | 445 kts | 321° |
| 2026-05-04 11:28 | 37.38066 | 28.04188 | 35918 ft | 433 kts | 320° |
| 2026-05-04 11:28 | 37.42544 | 27.99317 | 35973 ft | 418 kts | 320° |
| 2026-05-04 11:29 | 37.46953 | 27.94517 | 36017 ft | 421 kts | 320° |
| 2026-05-04 11:29 | 37.51375 | 27.89696 | 36019 ft | 424 kts | 320° |
| 2026-05-04 11:31 | 37.67276 | 27.72292 | 36014 ft | 437 kts | 320° |
| 2026-05-04 11:33 | 37.83222 | 27.54733 | 36024 ft | 429 kts | 320° |
| 2026-05-04 11:33 | 37.87671 | 27.49815 | 36031 ft | 425 kts | 320° |
| 2026-05-04 11:34 | 37.92115 | 27.44895 | 36047 ft | 422 kts | 320° |
| 2026-05-04 11:34 | 37.96569 | 27.39957 | 36057 ft | 428 kts | 320° |
| 2026-05-04 11:35 | 38.01057 | 27.34973 | 36060 ft | 434 kts | 320° |
| 2026-05-04 11:35 | 38.05627 | 27.29888 | 36054 ft | 438 kts | 320° |
| 2026-05-04 11:36 | 38.10202 | 27.24787 | 36046 ft | 441 kts | 320° |
| 2026-05-04 11:36 | 38.14812 | 27.19639 | 36036 ft | 439 kts | 320° |
| 2026-05-04 11:37 | 38.19393 | 27.14514 | 36042 ft | 438 kts | 320° |
| 2026-05-04 11:37 | 38.23934 | 27.09425 | 36037 ft | 434 kts | 320° |
| 2026-05-04 11:38 | 38.28436 | 27.04372 | 36037 ft | 429 kts | 320° |
| 2026-05-04 11:38 | 38.32899 | 26.99363 | 36050 ft | 428 kts | 320° |
| 2026-05-04 11:39 | 38.37425 | 26.94368 | 36055 ft | 432 kts | 320° |
| 2026-05-04 11:40 | 38.51276 | 26.79064 | 36057 ft | 445 kts | 320° |
| 2026-05-04 11:41 | 38.53614 | 26.76468 | 36057 ft | 444 kts | 320° |
| 2026-05-04 11:41 | 38.58237 | 26.71327 | 36053 ft | 439 kts | 320° |
| 2026-05-04 11:42 | 38.62826 | 26.66216 | 36054 ft | 435 kts | 320° |
| 2026-05-04 11:42 | 38.67382 | 26.61133 | 36062 ft | 433 kts | 320° |
| 2026-05-04 11:43 | 38.71919 | 26.56062 | 36076 ft | 434 kts | 320° |
| 2026-05-04 11:43 | 38.75727 | 26.51800 | 36087 ft | 440 kts | 320° |
| 2026-05-04 11:44 | 38.79018 | 26.48110 | 36080 ft | 443 kts | 320° |
| 2026-05-04 11:44 | 38.83683 | 26.42875 | 36084 ft | 446 kts | 320° |
| 2026-05-04 11:45 | 38.88393 | 26.37664 | 36086 ft | 447 kts | 321° |
| 2026-05-04 11:45 | 38.93102 | 26.32490 | 36078 ft | 442 kts | 321° |
| 2026-05-04 11:46 | 38.97737 | 26.27380 | 36077 ft | 436 kts | 321° |
| 2026-05-04 11:46 | 39.02289 | 26.22347 | 36079 ft | 433 kts | 321° |
| 2026-05-04 11:47 | 39.06861 | 26.17279 | 36088 ft | 434 kts | 321° |
| 2026-05-04 11:47 | 39.11462 | 26.12170 | 36087 ft | 438 kts | 321° |
| 2026-05-04 11:48 | 39.16081 | 26.07032 | 36092 ft | 443 kts | 321° |
| 2026-05-04 11:48 | 39.20763 | 26.01811 | 36100 ft | 447 kts | 321° |
| 2026-05-04 11:49 | 39.25486 | 25.96536 | 36096 ft | 449 kts | 321° |
| 2026-05-04 11:49 | 39.30197 | 25.91263 | 36083 ft | 446 kts | 321° |
| 2026-05-04 11:50 | 39.34848 | 25.86048 | 36093 ft | 440 kts | 321° |
| 2026-05-04 11:50 | 39.39479 | 25.80848 | 36100 ft | 440 kts | 321° |
| 2026-05-04 11:51 | 39.44097 | 25.75654 | 36105 ft | 440 kts | 321° |
| 2026-05-04 11:51 | 39.48692 | 25.70474 | 36105 ft | 441 kts | 321° |
| 2026-05-04 11:52 | 39.53331 | 25.65237 | 36105 ft | 442 kts | 321° |
| 2026-05-04 11:52 | 39.57975 | 25.59985 | 36105 ft | 443 kts | 321° |
| 2026-05-04 11:53 | 39.62599 | 25.54744 | 36104 ft | 444 kts | 320° |
| 2026-05-04 11:53 | 39.67261 | 25.49451 | 36107 ft | 445 kts | 320° |
| 2026-05-04 11:55 | 39.85943 | 25.28138 | 36131 ft | 448 kts | 320° |
| 2026-05-04 11:56 | 39.90623 | 25.22774 | 36130 ft | 447 kts | 320° |
| 2026-05-04 11:56 | 39.95294 | 25.17411 | 36127 ft | 447 kts | 320° |
| 2026-05-04 11:57 | 39.99940 | 25.12065 | 36129 ft | 447 kts | 320° |
| 2026-05-04 11:57 | 40.04610 | 25.06682 | 36117 ft | 446 kts | 320° |
| 2026-05-04 11:58 | 40.09236 | 25.01340 | 36114 ft | 445 kts | 320° |
| 2026-05-04 11:58 | 40.13875 | 24.95972 | 36112 ft | 444 kts | 320° |
| 2026-05-04 11:59 | 40.18499 | 24.90611 | 36110 ft | 444 kts | 320° |
| 2026-05-04 11:59 | 40.23123 | 24.85241 | 36108 ft | 443 kts | 320° |
| 2026-05-04 12:00 | 40.27733 | 24.79876 | 36109 ft | 443 kts | 320° |
| 2026-05-04 12:00 | 40.32319 | 24.74529 | 36109 ft | 443 kts | 320° |
| 2026-05-04 12:01 | 40.36936 | 24.69137 | 36109 ft | 444 kts | 320° |
| 2026-05-04 12:02 | 40.53086 | 24.50191 | 36108 ft | 445 kts | 320° |
| 2026-05-04 12:03 | 40.57703 | 24.44750 | 36109 ft | 446 kts | 320° |
| 2026-05-04 12:03 | 40.62298 | 24.39326 | 36104 ft | 446 kts | 320° |
| 2026-05-04 12:04 | 40.66921 | 24.33858 | 36096 ft | 446 kts | 320° |
| 2026-05-04 12:04 | 40.71539 | 24.28385 | 36095 ft | 445 kts | 320° |
| 2026-05-04 12:05 | 40.76120 | 24.22945 | 36093 ft | 445 kts | 320° |
| 2026-05-04 12:05 | 40.80717 | 24.17475 | 36096 ft | 444 kts | 320° |
| 2026-05-04 12:06 | 40.85281 | 24.12034 | 36095 ft | 444 kts | 320° |
| 2026-05-04 12:06 | 40.89868 | 24.06557 | 36089 ft | 443 kts | 320° |
| 2026-05-04 12:07 | 40.94437 | 24.01089 | 36089 ft | 442 kts | 320° |
| 2026-05-04 12:07 | 40.98969 | 23.95655 | 36079 ft | 441 kts | 320° |
| 2026-05-04 12:08 | 41.03514 | 23.90195 | 36082 ft | 440 kts | 320° |
| 2026-05-04 12:08 | 41.08047 | 23.84738 | 36079 ft | 439 kts | 320° |
| 2026-05-04 12:09 | 41.11798 | 23.80215 | 36088 ft | 438 kts | 320° |
| 2026-05-04 12:09 | 41.17033 | 23.73890 | 36084 ft | 437 kts | 320° |
| 2026-05-04 12:10 | 41.20778 | 23.69357 | 36084 ft | 437 kts | 320° |
| 2026-05-04 12:10 | 41.25274 | 23.63904 | 36080 ft | 437 kts | 320° |
| 2026-05-04 12:11 | 41.29770 | 23.58440 | 36090 ft | 437 kts | 319° |
| 2026-05-04 12:11 | 41.34234 | 23.53006 | 36079 ft | 437 kts | 319° |
| 2026-05-04 12:12 | 41.38725 | 23.47537 | 36094 ft | 437 kts | 321° |
| 2026-05-04 12:12 | 41.43788 | 23.43157 | 36099 ft | 433 kts | 335° |
| 2026-05-04 12:14 | 41.65532 | 23.29130 | 36085 ft | 435 kts | 335° |
| 2026-05-04 12:15 | 41.70980 | 23.25551 | 36092 ft | 435 kts | 335° |
| 2026-05-04 12:15 | 41.76386 | 23.21994 | 36087 ft | 436 kts | 335° |
| 2026-05-04 12:16 | 41.81839 | 23.18400 | 36095 ft | 436 kts | 335° |
| 2026-05-04 12:16 | 41.87289 | 23.14802 | 36104 ft | 436 kts | 335° |
| 2026-05-04 12:17 | 41.92699 | 23.11223 | 36082 ft | 435 kts | 335° |
| 2026-05-04 12:17 | 41.98124 | 23.07627 | 36100 ft | 435 kts | 335° |
| 2026-05-04 12:18 | 42.03547 | 23.04026 | 36098 ft | 434 kts | 335° |
| 2026-05-04 12:18 | 42.08968 | 23.00419 | 36096 ft | 434 kts | 335° |
| 2026-05-04 12:19 | 42.14376 | 22.96814 | 36099 ft | 433 kts | 335° |
| 2026-05-04 12:19 | 42.19744 | 22.93228 | 36104 ft | 433 kts | 335° |
| 2026-05-04 12:20 | 42.25149 | 22.89612 | 36093 ft | 432 kts | 335° |
| 2026-05-04 12:20 | 42.30540 | 22.85997 | 36102 ft | 432 kts | 335° |
| 2026-05-04 12:21 | 42.35887 | 22.82401 | 36106 ft | 432 kts | 335° |
| 2026-05-04 12:21 | 42.41274 | 22.78770 | 36107 ft | 432 kts | 335° |
| 2026-05-04 12:22 | 42.46658 | 22.75135 | 36108 ft | 431 kts | 335° |
| 2026-05-04 12:22 | 42.52032 | 22.71498 | 36107 ft | 431 kts | 335° |
| 2026-05-04 12:23 | 42.57383 | 22.67871 | 36106 ft | 431 kts | 335° |
| 2026-05-04 12:23 | 42.62754 | 22.64224 | 36110 ft | 431 kts | 335° |
| 2026-05-04 12:24 | 42.68119 | 22.60570 | 36107 ft | 430 kts | 335° |
| 2026-05-04 12:24 | 42.73433 | 22.56944 | 36104 ft | 429 kts | 335° |
| 2026-05-04 12:25 | 42.78765 | 22.53299 | 36113 ft | 428 kts | 335° |
| 2026-05-04 12:25 | 42.84094 | 22.49644 | 36107 ft | 428 kts | 334° |
| 2026-05-04 12:26 | 42.89128 | 22.45372 | 36111 ft | 429 kts | 328° |
| 2026-05-04 12:26 | 42.94054 | 22.40752 | 36114 ft | 429 kts | 328° |
| 2026-05-04 12:27 | 42.98988 | 22.36123 | 36119 ft | 429 kts | 328° |
| 2026-05-04 12:27 | 43.03892 | 22.31567 | 36113 ft | 429 kts | 328° |
| 2026-05-04 12:28 | 43.08835 | 22.26993 | 36120 ft | 428 kts | 328° |
| 2026-05-04 12:28 | 43.13779 | 22.22416 | 36117 ft | 428 kts | 328° |
| 2026-05-04 12:29 | 43.18683 | 22.17868 | 36125 ft | 428 kts | 328° |
| 2026-05-04 12:29 | 43.23622 | 22.13277 | 36115 ft | 428 kts | 328° |
| 2026-05-04 12:30 | 43.28552 | 22.08685 | 36122 ft | 427 kts | 328° |
| 2026-05-04 12:30 | 43.33467 | 22.04097 | 36118 ft | 426 kts | 328° |
| 2026-05-04 12:31 | 43.38341 | 21.99539 | 36131 ft | 425 kts | 328° |
| 2026-05-04 12:31 | 43.43231 | 21.94957 | 36125 ft | 424 kts | 328° |
| 2026-05-04 12:32 | 43.50549 | 21.88082 | 36121 ft | 423 kts | 328° |
| 2026-05-04 12:33 | 43.55384 | 21.83529 | 36115 ft | 422 kts | 328° |
| 2026-05-04 12:33 | 43.60238 | 21.78950 | 36123 ft | 422 kts | 328° |
| 2026-05-04 12:34 | 43.65097 | 21.74356 | 36113 ft | 422 kts | 328° |
| 2026-05-04 12:34 | 43.69904 | 21.69801 | 36121 ft | 422 kts | 328° |
| 2026-05-04 12:35 | 43.74750 | 21.65202 | 36121 ft | 422 kts | 328° |
| 2026-05-04 12:35 | 43.79602 | 21.60587 | 36125 ft | 422 kts | 328° |
| 2026-05-04 12:36 | 43.84433 | 21.55983 | 36126 ft | 423 kts | 328° |
| 2026-05-04 12:36 | 43.89285 | 21.51350 | 36123 ft | 424 kts | 328° |
| 2026-05-04 12:37 | 43.94150 | 21.46694 | 36135 ft | 424 kts | 328° |
| 2026-05-04 12:37 | 43.98978 | 21.42065 | 36123 ft | 424 kts | 328° |
| 2026-05-04 12:38 | 44.03837 | 21.37397 | 36136 ft | 424 kts | 328° |
| 2026-05-04 12:38 | 44.08696 | 21.32719 | 36128 ft | 424 kts | 328° |
| 2026-05-04 12:39 | 44.13550 | 21.28036 | 36128 ft | 424 kts | 328° |
| 2026-05-04 12:39 | 44.18367 | 21.23379 | 36127 ft | 424 kts | 328° |
| 2026-05-04 12:40 | 44.23217 | 21.18682 | 36135 ft | 423 kts | 327° |
| 2026-05-04 12:40 | 44.28049 | 21.13992 | 36126 ft | 422 kts | 327° |
| 2026-05-04 12:41 | 44.32875 | 21.09298 | 36124 ft | 422 kts | 327° |
| 2026-05-04 12:41 | 44.37654 | 21.04641 | 36134 ft | 421 kts | 327° |
| 2026-05-04 12:42 | 44.42461 | 20.99947 | 36130 ft | 420 kts | 327° |
| 2026-05-04 12:42 | 44.47254 | 20.95257 | 36131 ft | 419 kts | 327° |
| 2026-05-04 12:43 | 44.52005 | 20.90598 | 36126 ft | 419 kts | 327° |
| 2026-05-04 12:43 | 44.56784 | 20.85903 | 36133 ft | 418 kts | 327° |
| 2026-05-04 12:44 | 44.61553 | 20.81208 | 36130 ft | 418 kts | 327° |
| 2026-05-04 12:44 | 44.66294 | 20.76531 | 36132 ft | 419 kts | 327° |
| 2026-05-04 12:45 | 44.70713 | 20.72163 | 36126 ft | 419 kts | 327° |
| 2026-05-04 12:45 | 44.75489 | 20.67432 | 36130 ft | 419 kts | 327° |
| 2026-05-04 12:46 | 44.80232 | 20.62725 | 36125 ft | 420 kts | 327° |
| 2026-05-04 12:46 | 44.85012 | 20.57971 | 36127 ft | 420 kts | 327° |
| 2026-05-04 12:47 | 44.89791 | 20.53208 | 36131 ft | 420 kts | 327° |
| 2026-05-04 12:47 | 44.94577 | 20.48428 | 36130 ft | 421 kts | 327° |
| 2026-05-04 12:48 | 44.99335 | 20.43667 | 36129 ft | 422 kts | 327° |
| 2026-05-04 12:48 | 45.04124 | 20.38865 | 36126 ft | 422 kts | 327° |
| 2026-05-04 12:49 | 45.08922 | 20.34043 | 36131 ft | 423 kts | 326° |
| 2026-05-04 12:49 | 45.13729 | 20.29202 | 36127 ft | 423 kts | 326° |
| 2026-05-04 12:50 | 45.18498 | 20.24389 | 36128 ft | 423 kts | 326° |
| 2026-05-04 12:50 | 45.23298 | 20.19535 | 36119 ft | 423 kts | 326° |
| 2026-05-04 12:51 | 45.28091 | 20.14677 | 36119 ft | 423 kts | 326° |
| 2026-05-04 12:51 | 45.32874 | 20.09819 | 36117 ft | 423 kts | 326° |
| 2026-05-04 12:52 | 45.37659 | 20.04949 | 36120 ft | 423 kts | 326° |
| 2026-05-04 12:52 | 45.42413 | 20.00100 | 36116 ft | 423 kts | 326° |
| 2026-05-04 12:53 | 45.47205 | 19.95203 | 36112 ft | 422 kts | 326° |
| 2026-05-04 12:53 | 45.51960 | 19.90331 | 36114 ft | 422 kts | 326° |
| 2026-05-04 12:54 | 45.56731 | 19.85434 | 36107 ft | 422 kts | 326° |
| 2026-05-04 12:54 | 45.61507 | 19.80521 | 36112 ft | 422 kts | 326° |
| 2026-05-04 12:55 | 45.66273 | 19.75608 | 36109 ft | 422 kts | 325° |
| 2026-05-04 12:55 | 45.71002 | 19.70722 | 36110 ft | 421 kts | 325° |
| 2026-05-04 12:56 | 45.75767 | 19.65789 | 36107 ft | 422 kts | 325° |
| 2026-05-04 12:56 | 45.80518 | 19.60860 | 36104 ft | 422 kts | 325° |
| 2026-05-04 12:57 | 45.85253 | 19.55937 | 36101 ft | 422 kts | 325° |
| 2026-05-04 12:57 | 45.89207 | 19.51817 | 36100 ft | 422 kts | 325° |
| 2026-05-04 12:58 | 45.93960 | 19.46855 | 36102 ft | 422 kts | 325° |
| 2026-05-04 12:58 | 45.98721 | 19.41873 | 36096 ft | 422 kts | 325° |
| 2026-05-04 12:59 | 46.03470 | 19.36896 | 36097 ft | 422 kts | 325° |
| 2026-05-04 12:59 | 46.08094 | 19.31740 | 36097 ft | 422 kts | 322° |
| 2026-05-04 13:00 | 46.12618 | 19.26301 | 36092 ft | 423 kts | 321° |
| 2026-05-04 13:00 | 46.17129 | 19.20847 | 36094 ft | 423 kts | 321° |
| 2026-05-04 13:01 | 46.21627 | 19.15441 | 36095 ft | 423 kts | 321° |
| 2026-05-04 13:01 | 46.26164 | 19.09999 | 36091 ft | 423 kts | 321° |
| 2026-05-04 13:02 | 46.30699 | 19.04555 | 36090 ft | 423 kts | 321° |
| 2026-05-04 13:02 | 46.35213 | 18.99126 | 36085 ft | 424 kts | 321° |
| 2026-05-04 13:03 | 46.39752 | 18.93651 | 36089 ft | 424 kts | 321° |
| 2026-05-04 13:03 | 46.44290 | 18.88167 | 36084 ft | 424 kts | 321° |
| 2026-05-04 13:04 | 46.48810 | 18.82692 | 36082 ft | 425 kts | 321° |
| 2026-05-04 13:04 | 46.53354 | 18.77175 | 36079 ft | 425 kts | 321° |
| 2026-05-04 13:05 | 46.57862 | 18.71689 | 36075 ft | 425 kts | 321° |
| 2026-05-04 13:05 | 46.62402 | 18.66153 | 36075 ft | 426 kts | 320° |
| 2026-05-04 13:06 | 46.66953 | 18.60589 | 36071 ft | 426 kts | 320° |
| 2026-05-04 13:06 | 46.71502 | 18.55016 | 36078 ft | 426 kts | 320° |
| 2026-05-04 13:07 | 46.76016 | 18.49474 | 36072 ft | 427 kts | 320° |
| 2026-05-04 13:07 | 46.80571 | 18.43869 | 36070 ft | 427 kts | 320° |
| 2026-05-04 13:08 | 46.85114 | 18.38264 | 36067 ft | 427 kts | 320° |
| 2026-05-04 13:08 | 46.89633 | 18.32677 | 36066 ft | 427 kts | 320° |
| 2026-05-04 13:09 | 46.94165 | 18.27061 | 36061 ft | 427 kts | 320° |
| 2026-05-04 13:09 | 46.98705 | 18.21422 | 36059 ft | 427 kts | 320° |
| 2026-05-04 13:10 | 47.03208 | 18.15816 | 36061 ft | 427 kts | 320° |
| 2026-05-04 13:10 | 47.07729 | 18.10175 | 36062 ft | 426 kts | 320° |
| 2026-05-04 13:11 | 47.12261 | 18.04507 | 36063 ft | 426 kts | 319° |
| 2026-05-04 13:11 | 47.16749 | 17.98881 | 36060 ft | 425 kts | 319° |
| 2026-05-04 13:12 | 47.21247 | 17.93230 | 36048 ft | 425 kts | 319° |
| 2026-05-04 13:12 | 47.25739 | 17.87572 | 36056 ft | 424 kts | 319° |
| 2026-05-04 13:13 | 47.30199 | 17.81941 | 36056 ft | 424 kts | 319° |
| 2026-05-04 13:13 | 47.34676 | 17.76278 | 36051 ft | 424 kts | 319° |
| 2026-05-04 13:14 | 47.39123 | 17.70638 | 36044 ft | 423 kts | 319° |
| 2026-05-04 13:14 | 47.43592 | 17.64958 | 36047 ft | 423 kts | 319° |
| 2026-05-04 13:15 | 47.48055 | 17.59271 | 36048 ft | 423 kts | 319° |
| 2026-05-04 13:15 | 47.52489 | 17.53608 | 36046 ft | 423 kts | 319° |
| 2026-05-04 13:16 | 47.56948 | 17.47899 | 36046 ft | 423 kts | 319° |
| 2026-05-04 13:16 | 47.61403 | 17.42185 | 36033 ft | 423 kts | 319° |
| 2026-05-04 13:17 | 47.65759 | 17.36306 | 36031 ft | 423 kts | 315° |
| 2026-05-04 13:17 | 47.69977 | 17.30207 | 36023 ft | 424 kts | 315° |
| 2026-05-04 13:18 | 47.74187 | 17.24150 | 36010 ft | 424 kts | 315° |
| 2026-05-04 13:18 | 47.78446 | 17.18064 | 36013 ft | 424 kts | 315° |
| 2026-05-04 13:19 | 47.82702 | 17.11972 | 36004 ft | 424 kts | 314° |
| 2026-05-04 13:19 | 47.86619 | 17.05426 | 36013 ft | 423 kts | 309° |
| 2026-05-04 13:20 | 47.90364 | 16.98716 | 36001 ft | 423 kts | 309° |
| 2026-05-04 13:20 | 47.94144 | 16.91970 | 35994 ft | 423 kts | 309° |
| 2026-05-04 13:21 | 47.97935 | 16.85250 | 35997 ft | 423 kts | 309° |
| 2026-05-04 13:21 | 48.01735 | 16.78513 | 36001 ft | 423 kts | 309° |
| 2026-05-04 13:22 | 48.05510 | 16.71801 | 35993 ft | 423 kts | 309° |
| 2026-05-04 13:22 | 48.09307 | 16.65035 | 35988 ft | 424 kts | 309° |
| 2026-05-04 13:23 | 48.13044 | 16.58262 | 36002 ft | 424 kts | 308° |
| 2026-05-04 13:23 | 48.16736 | 16.51365 | 35996 ft | 424 kts | 308° |
| 2026-05-04 13:24 | 48.20429 | 16.44439 | 35986 ft | 424 kts | 308° |
| 2026-05-04 13:24 | 48.24104 | 16.37551 | 35996 ft | 424 kts | 308° |
| 2026-05-04 13:25 | 48.29644 | 16.27152 | 35979 ft | 424 kts | 307° |
| 2026-05-04 13:25 | 48.33313 | 16.20247 | 35973 ft | 425 kts | 307° |
| 2026-05-04 13:26 | 48.36981 | 16.13323 | 35966 ft | 424 kts | 307° |
| 2026-05-04 13:26 | 48.40659 | 16.06363 | 35967 ft | 424 kts | 307° |
| 2026-05-04 13:27 | 48.44333 | 15.99395 | 35968 ft | 424 kts | 307° |
| 2026-05-04 13:27 | 48.47976 | 15.92465 | 35964 ft | 423 kts | 307° |
| 2026-05-04 13:28 | 48.51630 | 15.85497 | 35963 ft | 423 kts | 307° |
| 2026-05-04 13:28 | 48.55281 | 15.78517 | 35969 ft | 422 kts | 307° |
| 2026-05-04 13:29 | 48.58901 | 15.71579 | 35972 ft | 422 kts | 307° |
| 2026-05-04 13:29 | 48.62533 | 15.64598 | 35966 ft | 422 kts | 306° |
| 2026-05-04 13:30 | 48.66155 | 15.57618 | 35974 ft | 421 kts | 306° |
| 2026-05-04 13:30 | 48.69772 | 15.50630 | 35974 ft | 421 kts | 306° |
| 2026-05-04 13:31 | 48.73364 | 15.43672 | 35972 ft | 421 kts | 306° |
| 2026-05-04 13:31 | 48.76973 | 15.36664 | 35975 ft | 421 kts | 306° |
| 2026-05-04 13:32 | 48.80580 | 15.29639 | 35982 ft | 422 kts | 306° |
| 2026-05-04 13:32 | 48.84164 | 15.22643 | 35973 ft | 422 kts | 306° |
| 2026-05-04 13:33 | 48.87766 | 15.15594 | 35969 ft | 422 kts | 306° |
| 2026-05-04 13:33 | 48.91399 | 15.08564 | 35974 ft | 423 kts | 307° |
| 2026-05-04 13:34 | 48.95195 | 15.01761 | 35974 ft | 424 kts | 308° |
| 2026-05-04 13:34 | 48.99050 | 14.94933 | 35970 ft | 424 kts | 308° |
| 2026-05-04 13:35 | 49.04766 | 14.84679 | 35976 ft | 424 kts | 308° |
| 2026-05-04 13:36 | 49.08575 | 14.77786 | 35977 ft | 424 kts | 308° |
| 2026-05-04 13:36 | 49.12367 | 14.70898 | 35976 ft | 424 kts | 307° |
| 2026-05-04 13:37 | 49.16164 | 14.63985 | 35978 ft | 424 kts | 307° |
| 2026-05-04 13:37 | 49.19929 | 14.57112 | 35975 ft | 424 kts | 307° |
| 2026-05-04 13:38 | 49.23713 | 14.50188 | 35977 ft | 423 kts | 307° |
| 2026-05-04 13:38 | 49.27491 | 14.43257 | 35974 ft | 423 kts | 307° |
| 2026-05-04 13:39 | 49.31237 | 14.36365 | 35975 ft | 423 kts | 307° |
| 2026-05-04 13:39 | 49.35000 | 14.29425 | 35978 ft | 423 kts | 307° |
| 2026-05-04 13:40 | 49.38763 | 14.22467 | 35975 ft | 423 kts | 307° |
| 2026-05-04 13:40 | 49.42516 | 14.15507 | 35980 ft | 423 kts | 307° |
| 2026-05-04 13:41 | 49.46264 | 14.08539 | 35976 ft | 423 kts | 307° |
| 2026-05-04 13:41 | 49.49991 | 14.01593 | 35976 ft | 423 kts | 307° |
| 2026-05-04 13:42 | 49.55582 | 13.91135 | 35976 ft | 423 kts | 306° |
| 2026-05-04 13:42 | 49.59322 | 13.84118 | 35970 ft | 423 kts | 306° |
| 2026-05-04 13:43 | 49.63028 | 13.77146 | 35985 ft | 422 kts | 306° |
| 2026-05-04 13:43 | 49.66757 | 13.70111 | 35989 ft | 423 kts | 306° |
| 2026-05-04 13:44 | 49.70480 | 13.63068 | 35992 ft | 423 kts | 306° |
| 2026-05-04 13:44 | 49.73575 | 13.57201 | 35982 ft | 423 kts | 306° |
| 2026-05-04 13:45 | 49.77895 | 13.48987 | 35993 ft | 423 kts | 306° |
| 2026-05-04 13:45 | 49.81604 | 13.41914 | 35992 ft | 423 kts | 306° |
| 2026-05-04 13:46 | 49.84715 | 13.35967 | 35987 ft | 423 kts | 306° |
| 2026-05-04 13:46 | 49.88400 | 13.28906 | 35991 ft | 424 kts | 306° |
| 2026-05-04 13:47 | 49.92058 | 13.21721 | 35986 ft | 423 kts | 303° |
| 2026-05-04 13:47 | 49.95435 | 13.14250 | 35985 ft | 422 kts | 301° |
| 2026-05-04 13:48 | 49.98758 | 13.06713 | 35980 ft | 422 kts | 301° |
| 2026-05-04 13:48 | 50.02078 | 12.99237 | 35983 ft | 422 kts | 301° |
| 2026-05-04 13:49 | 50.05433 | 12.91714 | 35989 ft | 422 kts | 301° |
| 2026-05-04 13:49 | 50.08780 | 12.84200 | 35995 ft | 422 kts | 301° |
| 2026-05-04 13:50 | 50.12112 | 12.76698 | 35987 ft | 422 kts | 301° |
| 2026-05-04 13:50 | 50.15445 | 12.69172 | 35994 ft | 421 kts | 301° |
| 2026-05-04 13:51 | 50.18772 | 12.61636 | 35987 ft | 421 kts | 301° |
| 2026-05-04 13:51 | 50.22072 | 12.54139 | 35982 ft | 421 kts | 301° |
| 2026-05-04 13:52 | 50.27045 | 12.42804 | 35978 ft | 421 kts | 301° |
| 2026-05-04 13:53 | 50.30401 | 12.35289 | 35974 ft | 422 kts | 303° |
| 2026-05-04 13:53 | 50.33962 | 12.28006 | 35984 ft | 423 kts | 304° |
| 2026-05-04 13:54 | 50.39384 | 12.17056 | 35985 ft | 423 kts | 303° |
| 2026-05-04 13:55 | 50.44752 | 12.06054 | 35992 ft | 423 kts | 303° |
| 2026-05-04 13:55 | 50.50079 | 11.95055 | 35986 ft | 424 kts | 303° |
| 2026-05-04 13:56 | 50.53650 | 11.87653 | 35983 ft | 424 kts | 303° |
| 2026-05-04 13:57 | 50.58966 | 11.76599 | 35982 ft | 424 kts | 303° |
| 2026-05-04 13:58 | 50.66082 | 11.61727 | 35974 ft | 425 kts | 303° |
| 2026-05-04 13:58 | 50.71412 | 11.50533 | 35971 ft | 425 kts | 302° |
| 2026-05-04 13:59 | 50.74949 | 11.43077 | 35979 ft | 424 kts | 302° |
| 2026-05-04 14:00 | 50.80222 | 11.31923 | 35981 ft | 423 kts | 302° |
| 2026-05-04 14:00 | 50.85506 | 11.20698 | 35988 ft | 423 kts | 302° |
| 2026-05-04 14:01 | 50.88993 | 11.13263 | 35996 ft | 422 kts | 302° |
| 2026-05-04 14:02 | 50.94238 | 11.02040 | 35998 ft | 422 kts | 302° |
| 2026-05-04 14:02 | 50.97734 | 10.94533 | 35993 ft | 422 kts | 302° |
| 2026-05-04 14:03 | 51.01200 | 10.87069 | 35994 ft | 421 kts | 302° |
| 2026-05-04 14:03 | 51.04671 | 10.79572 | 35993 ft | 421 kts | 302° |
| 2026-05-04 14:04 | 51.09873 | 10.68295 | 35989 ft | 421 kts | 301° |
| 2026-05-04 14:04 | 51.13338 | 10.60758 | 35992 ft | 421 kts | 301° |
| 2026-05-04 14:05 | 51.18504 | 10.49477 | 35977 ft | 422 kts | 301° |
| 2026-05-04 14:06 | 51.21957 | 10.41911 | 35965 ft | 422 kts | 301° |
| 2026-05-04 14:06 | 51.25357 | 10.34284 | 35972 ft | 418 kts | 296° |
| 2026-05-04 14:07 | 51.28043 | 10.26144 | 35967 ft | 416 kts | 292° |
| 2026-05-04 14:07 | 51.30653 | 10.17881 | 35973 ft | 416 kts | 292° |
| 2026-05-04 14:08 | 51.33271 | 10.09629 | 35958 ft | 416 kts | 292° |
| 2026-05-04 14:08 | 51.35898 | 10.01385 | 35962 ft | 415 kts | 292° |
| 2026-05-04 14:09 | 51.39816 | 9.89072 | 35960 ft | 415 kts | 292° |
| 2026-05-04 14:10 | 51.43727 | 9.76722 | 35969 ft | 414 kts | 292° |
| 2026-05-04 14:10 | 51.46329 | 9.68469 | 35967 ft | 414 kts | 292° |
| 2026-05-04 14:11 | 51.48920 | 9.60226 | 35972 ft | 413 kts | 292° |
| 2026-05-04 14:11 | 51.52777 | 9.47901 | 35973 ft | 412 kts | 291° |
| 2026-05-04 14:12 | 51.55349 | 9.39643 | 35969 ft | 412 kts | 291° |
| 2026-05-04 14:13 | 51.59175 | 9.27313 | 35969 ft | 412 kts | 291° |
| 2026-05-04 14:13 | 51.61731 | 9.19041 | 35958 ft | 412 kts | 291° |
| 2026-05-04 14:14 | 51.64280 | 9.10763 | 35953 ft | 413 kts | 291° |
| 2026-05-04 14:14 | 51.68080 | 8.98367 | 35965 ft | 413 kts | 291° |
| 2026-05-04 14:15 | 51.73161 | 8.81701 | 35970 ft | 414 kts | 291° |
| 2026-05-04 14:16 | 51.76770 | 8.69080 | 35968 ft | 414 kts | 288° |
| 2026-05-04 14:17 | 51.80193 | 8.56238 | 35966 ft | 415 kts | 288° |
| 2026-05-04 14:18 | 51.83640 | 8.43385 | 35964 ft | 415 kts | 288° |
| 2026-05-04 14:19 | 51.88230 | 8.26248 | 35800 ft | 418 kts | 288° |
| 2026-05-04 14:19 | 51.89383 | 8.21922 | 35495 ft | 414 kts | 288° |
| 2026-05-04 14:19 | 51.90505 | 8.17712 | 35057 ft | 410 kts | 288° |
| 2026-05-04 14:19 | 51.91629 | 8.13492 | 34676 ft | 405 kts | 287° |
| 2026-05-04 14:20 | 51.92739 | 8.09308 | 34272 ft | 401 kts | 287° |
| 2026-05-04 14:20 | 51.93822 | 8.05217 | 33860 ft | 398 kts | 287° |
| 2026-05-04 14:20 | 51.94908 | 8.01108 | 33398 ft | 394 kts | 287° |
| 2026-05-04 14:21 | 51.97042 | 7.93008 | 32572 ft | 386 kts | 287° |
| 2026-05-04 14:21 | 51.98089 | 7.89021 | 32180 ft | 382 kts | 287° |
| 2026-05-04 14:21 | 51.99127 | 7.85063 | 31780 ft | 379 kts | 286° |
| 2026-05-04 14:21 | 52.00155 | 7.81136 | 31391 ft | 376 kts | 286° |
| 2026-05-04 14:22 | 52.01172 | 7.77241 | 31006 ft | 373 kts | 286° |
| 2026-05-04 14:22 | 52.02167 | 7.73426 | 30635 ft | 370 kts | 286° |
| 2026-05-04 14:22 | 52.03170 | 7.69575 | 30256 ft | 368 kts | 286° |
| 2026-05-04 14:22 | 52.04162 | 7.65756 | 29860 ft | 365 kts | 286° |
| 2026-05-04 14:23 | 52.06123 | 7.58196 | 29049 ft | 358 kts | 286° |
| 2026-05-04 14:23 | 52.07073 | 7.54525 | 28665 ft | 355 kts | 286° |
| 2026-05-04 14:23 | 52.08026 | 7.50838 | 28262 ft | 352 kts | 286° |
| 2026-05-04 14:24 | 52.08970 | 7.47176 | 27897 ft | 349 kts | 287° |
| 2026-05-04 14:24 | 52.09901 | 7.43560 | 27679 ft | 343 kts | 287° |
| 2026-05-04 14:24 | 52.10821 | 7.39982 | 27682 ft | 343 kts | 287° |
| 2026-05-04 14:24 | 52.11731 | 7.36435 | 27662 ft | 335 kts | 286° |
| 2026-05-04 14:25 | 52.12616 | 7.32997 | 27649 ft | 323 kts | 286° |
| 2026-05-04 14:25 | 52.14308 | 7.26380 | 27128 ft | 314 kts | 286° |
| 2026-05-04 14:25 | 52.15150 | 7.23061 | 26471 ft | 322 kts | 286° |
| 2026-05-04 14:26 | 52.16020 | 7.19609 | 25312 ft | 345 kts | 287° |
| 2026-05-04 14:26 | 52.16952 | 7.15930 | 24746 ft | 351 kts | 287° |
| 2026-05-04 14:26 | 52.17889 | 7.12255 | 24282 ft | 351 kts | 288° |
| 2026-05-04 14:26 | 52.18823 | 7.08587 | 23920 ft | 349 kts | 288° |
| 2026-05-04 14:27 | 52.19753 | 7.04924 | 23520 ft | 348 kts | 288° |
| 2026-05-04 14:27 | 52.20675 | 7.01275 | 23081 ft | 347 kts | 288° |
| 2026-05-04 14:27 | 52.21630 | 6.97679 | 22667 ft | 347 kts | 294° |
| 2026-05-04 14:27 | 52.23020 | 6.94491 | 22265 ft | 350 kts | 305° |
| 2026-05-04 14:28 | 52.24571 | 6.91458 | 21905 ft | 347 kts | 306° |
| 2026-05-04 14:28 | 52.26125 | 6.88447 | 21507 ft | 345 kts | 306° |
| 2026-05-04 14:28 | 52.27658 | 6.85444 | 21121 ft | 343 kts | 306° |
| 2026-05-04 14:28 | 52.29173 | 6.82437 | 20753 ft | 341 kts | 306° |
| 2026-05-04 14:29 | 52.32153 | 6.76455 | 20035 ft | 337 kts | 306° |
| 2026-05-04 14:29 | 52.35090 | 6.70537 | 19332 ft | 333 kts | 306° |
| 2026-05-04 14:30 | 52.36529 | 6.67640 | 18997 ft | 331 kts | 306° |
| 2026-05-04 14:30 | 52.37977 | 6.64719 | 18661 ft | 329 kts | 306° |
| 2026-05-04 14:30 | 52.40848 | 6.58918 | 17950 ft | 326 kts | 307° |
| 2026-05-04 14:31 | 52.42271 | 6.56039 | 17576 ft | 324 kts | 307° |
| 2026-05-04 14:31 | 52.44618 | 6.51282 | 16970 ft | 321 kts | 307° |
| 2026-05-04 14:32 | 52.46916 | 6.45168 | 16198 ft | 314 kts | 281° |
| 2026-05-04 14:32 | 52.47205 | 6.41642 | 15866 ft | 310 kts | 274° |
| 2026-05-04 14:32 | 52.47373 | 6.38111 | 15509 ft | 310 kts | 273° |
| 2026-05-04 14:32 | 52.47524 | 6.34586 | 15144 ft | 309 kts | 273° |
| 2026-05-04 14:33 | 52.47676 | 6.31127 | 14805 ft | 308 kts | 273° |
| 2026-05-04 14:33 | 52.47835 | 6.27634 | 14465 ft | 306 kts | 274° |
| 2026-05-04 14:33 | 52.48000 | 6.24152 | 14126 ft | 305 kts | 274° |
| 2026-05-04 14:33 | 52.48166 | 6.20682 | 13791 ft | 304 kts | 274° |
| 2026-05-04 14:34 | 52.48332 | 6.17237 | 13430 ft | 303 kts | 274° |
| 2026-05-04 14:34 | 52.48500 | 6.13794 | 13077 ft | 301 kts | 274° |
| 2026-05-04 14:34 | 52.48665 | 6.10377 | 12766 ft | 300 kts | 274° |
| 2026-05-04 14:34 | 52.48828 | 6.06974 | 12444 ft | 299 kts | 274° |
| 2026-05-04 14:35 | 52.48990 | 6.03579 | 12132 ft | 297 kts | 274° |
| 2026-05-04 14:35 | 52.49150 | 6.00198 | 11789 ft | 296 kts | 274° |
| 2026-05-04 14:35 | 52.49309 | 5.96834 | 11449 ft | 295 kts | 274° |
| 2026-05-04 14:35 | 52.49466 | 5.93476 | 11118 ft | 294 kts | 274° |
| 2026-05-04 14:36 | 52.49622 | 5.90134 | 10791 ft | 293 kts | 274° |
| 2026-05-04 14:36 | 52.49776 | 5.86803 | 10526 ft | 290 kts | 273° |
| 2026-05-04 14:36 | 52.49924 | 5.83598 | 10445 ft | 280 kts | 274° |
| 2026-05-04 14:36 | 52.50069 | 5.80451 | 10288 ft | 274 kts | 273° |
| 2026-05-04 14:37 | 52.50210 | 5.77350 | 10032 ft | 272 kts | 273° |
| 2026-05-04 14:37 | 52.50350 | 5.74254 | 9726 ft | 271 kts | 273° |
| 2026-05-04 14:37 | 52.50489 | 5.71171 | 9424 ft | 271 kts | 273° |
| 2026-05-04 14:37 | 52.50628 | 5.68089 | 9131 ft | 269 kts | 273° |
| 2026-05-04 14:38 | 52.50764 | 5.65029 | 8840 ft | 268 kts | 273° |
| 2026-05-04 14:38 | 52.50899 | 5.61984 | 8551 ft | 267 kts | 273° |
| 2026-05-04 14:38 | 52.50785 | 5.58957 | 8258 ft | 265 kts | 259° |
| 2026-05-04 14:38 | 52.50448 | 5.56019 | 7965 ft | 265 kts | 258° |
| 2026-05-04 14:39 | 52.50080 | 5.53056 | 7662 ft | 264 kts | 258° |
| 2026-05-04 14:39 | 52.49707 | 5.50100 | 7393 ft | 263 kts | 257° |
| 2026-05-04 14:39 | 52.49334 | 5.47174 | 7147 ft | 261 kts | 258° |
| 2026-05-04 14:40 | 52.48590 | 5.41392 | 6652 ft | 257 kts | 257° |
| 2026-05-04 14:40 | 52.48221 | 5.38537 | 6415 ft | 255 kts | 257° |
| 2026-05-04 14:40 | 52.47850 | 5.35682 | 6153 ft | 254 kts | 257° |
| 2026-05-04 14:40 | 52.47514 | 5.33106 | 5923 ft | 253 kts | 257° |
| 2026-05-04 14:41 | 52.47150 | 5.30331 | 5660 ft | 252 kts | 258° |
| 2026-05-04 14:41 | 52.46750 | 5.27541 | 5400 ft | 251 kts | 254° |
| 2026-05-04 14:41 | 52.45735 | 5.22071 | 4914 ft | 251 kts | 252° |
| 2026-05-04 14:42 | 52.44675 | 5.16556 | 4397 ft | 253 kts | 252° |
| 2026-05-04 14:42 | 52.44149 | 5.13843 | 4143 ft | 253 kts | 252° |
| 2026-05-04 14:42 | 52.43613 | 5.11097 | 3887 ft | 252 kts | 252° |
| 2026-05-04 14:43 | 52.43078 | 5.08368 | 3616 ft | 251 kts | 252° |
| 2026-05-04 14:43 | 52.42543 | 5.05645 | 3372 ft | 251 kts | 252° |
| 2026-05-04 14:43 | 52.42006 | 5.02923 | 3120 ft | 250 kts | 252° |
| 2026-05-04 14:43 | 52.41472 | 5.00238 | 3032 ft | 248 kts | 252° |
| 2026-05-04 14:44 | 52.40934 | 4.97548 | 2997 ft | 248 kts | 252° |
| 2026-05-04 14:44 | 52.40403 | 4.94900 | 3001 ft | 248 kts | 252° |
| 2026-05-04 14:44 | 52.39859 | 4.92188 | 2994 ft | 248 kts | 252° |
| 2026-05-04 14:44 | 52.39326 | 4.89536 | 2993 ft | 248 kts | 252° |
| 2026-05-04 14:45 | 52.38786 | 4.86848 | 3001 ft | 249 kts | 252° |
| 2026-05-04 14:45 | 52.38243 | 4.84140 | 3001 ft | 249 kts | 252° |
| 2026-05-04 14:45 | 52.37702 | 4.81440 | 2998 ft | 250 kts | 252° |
| 2026-05-04 14:45 | 52.37161 | 4.78731 | 2989 ft | 250 kts | 252° |
| 2026-05-04 14:46 | 52.36619 | 4.76020 | 2988 ft | 250 kts | 252° |
| 2026-05-04 14:46 | 52.35945 | 4.73438 | 2991 ft | 250 kts | 242° |
| 2026-05-04 14:46 | 52.35127 | 4.70932 | 2991 ft | 249 kts | 242° |
| 2026-05-04 14:46 | 52.34309 | 4.68432 | 2995 ft | 249 kts | 242° |
| 2026-05-04 14:47 | 52.33489 | 4.65930 | 2993 ft | 249 kts | 242° |
| 2026-05-04 14:47 | 52.32673 | 4.63440 | 2895 ft | 246 kts | 242° |
| 2026-05-04 14:47 | 52.31862 | 4.60973 | 2652 ft | 245 kts | 242° |
| 2026-05-04 14:47 | 52.31062 | 4.58540 | 2468 ft | 240 kts | 242° |
| 2026-05-04 14:48 | 52.30272 | 4.56152 | 2239 ft | 239 kts | 240° |
| 2026-05-04 14:48 | 52.29114 | 4.54294 | 2065 ft | 235 kts | 204° |
| 2026-05-04 14:48 | 52.27550 | 4.53991 | 2004 ft | 226 kts | 167° |
| 2026-05-04 14:48 | 52.26120 | 4.54832 | 2006 ft | 212 kts | 156° |
| 2026-05-04 14:49 | 52.24982 | 4.56153 | 2008 ft | 195 kts | 136° |
| 2026-05-04 14:49 | 52.24125 | 4.57731 | 1968 ft | 177 kts | 114° |
| 2026-05-04 14:49 | 52.24082 | 4.59591 | 2003 ft | 169 kts | 72° |
| 2026-05-04 14:49 | 52.24442 | 4.61482 | 1751 ft | 173 kts | 66° |
| 2026-05-04 14:50 | 52.24935 | 4.63186 | 1502 ft | 161 kts | 61° |
| 2026-05-04 14:50 | 52.25468 | 4.64719 | 1319 ft | 153 kts | 56° |
| 2026-05-04 14:50 | 52.26034 | 4.66206 | 1090 ft | 152 kts | 56° |
| 2026-05-04 14:50 | 52.26584 | 4.67644 | 872 ft | 147 kts | 56° |
| 2026-05-04 14:51 | 52.27120 | 4.69045 | 693 ft | 147 kts | 54° |
| 2026-05-04 14:51 | 52.27676 | 4.70493 | 467 ft | 150 kts | 54° |
| 2026-05-04 14:51 | 52.28227 | 4.71931 | 299 ft | 150 kts | 55° |
| 2026-05-04 14:51 | 52.28778 | 4.73364 | 86 ft | 148 kts | 56° |
| 2026-05-04 14:52 | 52.29287 | 4.74717 | 2 ft | 129 kts | 54° |
| 2026-05-04 14:52 | 52.29710 | 4.75803 | -3 ft | 96 kts | 58° |
| 2026-05-04 14:52 | 52.29947 | 4.76411 | -4 ft | 39 kts | 54° |
| 2026-05-04 14:52 | 52.30130 | 4.76633 | -2 ft | 28 kts | 23° |
| 2026-05-04 14:53 | 52.30293 | 4.76781 | -2 ft | 22 kts | 43° |
| 2026-05-04 14:53 | 52.30375 | 4.76986 | -2 ft | 21 kts | 58° |
| 2026-05-04 14:53 | 52.30451 | 4.77187 | -2 ft | 21 kts | 58° |
| 2026-05-04 14:53 | 52.30531 | 4.77394 | -2 ft | 22 kts | 58° |
| 2026-05-04 14:54 | 52.30636 | 4.77568 | -2 ft | 22 kts | 20° |
| 2026-05-04 14:54 | 52.30778 | 4.77598 | -2 ft | 17 kts | 2° |
| 2026-05-04 14:54 | 52.30831 | 4.77457 | -2 ft | 17 kts | 275° |
| 2026-05-04 14:54 | 52.30850 | 4.77367 | -2 ft | 7 kts | 346° |
| 2026-05-04 14:55 | 52.30892 | 4.77367 | -2 ft | 3 kts | 2° |
| 2026-05-04 14:55 | 52.30895 | 4.77367 | -2 ft | 0 kts | 2° |